D/T METAR WX W/DIR W/SPE G/SPE TEMP DEWP
7/12/19 22:50 EGBB 072250Z 20018G28KT 9999 OVC011 10/08 Q1001 SSW (200°) 20.7mph 32.2mph 10°C 8°C
7/12/19 22:20 EGBB 072220Z 20015G25KT 9999 OVC012 09/07 Q1002 SSW (200°) 17.3mph 28.8mph 9°C 7°C
7/12/19 21:50 EGBB 072150Z 20014G26KT 9999 OVC012 09/07 Q1003 SSW (200°) 16.1mph 29.9mph 9°C 7°C
7/12/19 20:50 EGBB 072050Z 20013G25KT 170V230 9999 BKN010 09/07 Q1005 SSW (200°) 15.0mph 28.8mph 9°C 7°C
7/12/19 20:20 EGBB 072020Z 20016G26KT 170V230 9999 BKN011 09/07 Q1006 SSW (200°) 18.4mph 29.9mph 9°C 7°C
7/12/19 19:50 EGBB 071950Z 19013KT 9999 BKN011 09/08 Q1006 S (190°) 15.0mph 9°C 8°C
7/12/19 18:50 EGBB 071850Z 20011KT 180V240 9999 SCT009 09/07 Q1007 SSW (200°) 12.7mph 9°C 7°C
7/12/19 18:20 EGBB 071820Z 21009KT 9999 FEW010 SCT020 09/07 Q1008 SSW (210°) 10.4mph 9°C 7°C
7/12/19 17:50 EGBB 071750Z 21010KT 170V250 9999 FEW020 08/07 Q1009 SSW (210°) 11.5mph 8°C 7°C
7/12/19 17:20 EGBB 071720Z 20006KT 170V240 9999 FEW009 08/07 Q1009 SSW (200°) 6.9mph 8°C 7°C
7/12/19 16:50 EGBB 071650Z 19006KT 160V230 9999 FEW010 SCT020 08/07 Q1009 S (190°) 6.9mph 8°C 7°C
7/12/19 16:20 EGBB 071620Z 20006KT 160V230 9999 FEW011 09/07 Q1009 SSW (200°) 6.9mph 9°C 7°C
7/12/19 15:50 EGBB 071550Z 20008KT CAVOK 09/06 Q1009 SSW (200°) 9.2mph 9°C 6°C
7/12/19 15:20 EGBB 071520Z 21007KT 180V240 CAVOK 10/06 Q1010 SSW (210°) 8.1mph 10°C 6°C
7/12/19 14:50 EGBB 071450Z 23006KT 190V290 9999 FEW022 10/06 Q1010 SW (230°) 6.9mph 10°C 6°C
7/12/19 14:20 EGBB 071420Z 23009KT 9999 FEW021 10/06 Q1010 SW (230°) 10.4mph 10°C 6°C
7/12/19 13:50 EGBB 071350Z 21006KT 180V240 9999 FEW022 10/06 Q1010 SSW (210°) 6.9mph 10°C 6°C
7/12/19 13:20 EGBB 071320Z 22008KT 180V250 9999 BKN023 10/06 Q1011 SW (220°) 9.2mph 10°C 6°C
7/12/19 12:50 EGBB 071250Z 24007KT 9999 BKN023 10/06 Q1011 WSW (240°) 8.1mph 10°C 6°C
7/12/19 12:20 EGBB 071220Z 23008KT 190V290 9999 BKN024 10/05 Q1011 SW (230°) 9.2mph 10°C 5°C
7/12/19 11:50 EGBB 071150Z 21006KT 180V250 9999 SCT023 10/06 Q1012 SSW (210°) 6.9mph 10°C 6°C
7/12/19 11:20 EGBB 071120Z 22005KT 170V270 9999 SCT018 09/06 Q1012 SW (220°) 5.8mph 9°C 6°C
7/12/19 10:50 EGBB 071050Z 25007KT 200V280 9999 FEW018 SCT027 09/06 Q1012 WSW (250°) 8.1mph 9°C 6°C
7/12/19 10:20 EGBB 071020Z 24006KT 210V280 9999 FEW029 09/06 Q1012 WSW (240°) 6.9mph 9°C 6°C
7/12/19 09:20 EGBB 070920Z 25005KT 210V280 9999 SCT031 09/06 Q1012 WSW (250°) 5.8mph 9°C 6°C
7/12/19 08:50 EGBB 070850Z 26008KT 220V290 9999 SCT032 08/05 Q1012 W (260°) 9.2mph 8°C 5°C
7/12/19 07:50 EGBB 070750Z 25008KT 210V280 9999 SCT037 08/06 Q1012 WSW (250°) 9.2mph 8°C 6°C
7/12/19 07:20 EGBB 070720Z 25007KT 210V280 9999 SCT040 08/06 Q1012 WSW (250°) 8.1mph 8°C 6°C
7/12/19 06:50 EGBB 070650Z 25006KT 9999 BKN039 08/06 Q1012 WSW (250°) 6.9mph 8°C 6°C
7/12/19 06:20 EGBB 070620Z 23006KT 9999 BKN038 08/06 Q1011 SW (230°) 6.9mph 8°C 6°C
7/12/19 05:50 EGBB 070550Z 26007KT 9999 BKN041 08/06 Q1011 W (260°) 8.1mph 8°C 6°C
7/12/19 05:20 EGBB 070520Z 23006KT 9999 OVC041 08/06 Q1010 SW (230°) 6.9mph 8°C 6°C
7/12/19 04:50 EGBB 070450Z 25007KT 9999 OVC039 08/06 Q1010 WSW (250°) 8.1mph 8°C 6°C
7/12/19 04:20 EGBB 070420Z 24006KT 210V280 9999 OVC039 08/06 Q1010 WSW (240°) 6.9mph 8°C 6°C
7/12/19 03:50 EGBB 070350Z AUTO 24006KT 210V280 9999 OVC039/// 08/06 Q1010 WSW (240°) 6.9mph 8°C 6°C
7/12/19 02:50 EGBB 070250Z AUTO 24007KT 9999 BKN037/// OVC044/// 09/06 Q1010 WSW (240°) 8.1mph 9°C 6°C
7/12/19 02:20 EGBB 070220Z AUTO 25009KT 220V280 9999 OVC040/// 09/06 Q1010 WSW (250°) 10.4mph 9°C 6°C
7/12/19 01:50 EGBB 070150Z AUTO 25006KT 210V290 9999 BKN039/// OVC046/// 09/06 Q1009 WSW (250°) 6.9mph 9°C 6°C
7/12/19 01:20 EGBB 070120Z AUTO 25006KT 210V280 9999 OVC041/// 09/06 Q1009 WSW (250°) 6.9mph 9°C 6°C
7/12/19 00:50 EGBB 070050Z AUTO 25006KT 210V280 9999 OVC040/// 09/06 Q1009 WSW (250°) 6.9mph 9°C 6°C
7/12/19 00:20 EGBB 070020Z AUTO 25007KT 9999 BKN036/// OVC044/// 09/06 Q1008 WSW (250°) 8.1mph 9°C 6°C
6/12/19 23:50 EGBB 062350Z AUTO 25007KT 220V280 9999 OVC036/// 09/06 Q1008 WSW (250°) 8.1mph 9°C 6°C
6/12/19 23:20 EGBB 062320Z AUTO 26009KT 9999 OVC041/// 09/06 Q1008 W (260°) 10.4mph 9°C 6°C
6/12/19 22:50 EGBB 062250Z 26007KT 230V290 9999 OVC041 09/06 Q1007 W (260°) 8.1mph 9°C 6°C
6/12/19 22:20 EGBB 062220Z 26007KT 240V300 9999 OVC038 09/06 Q1007 W (260°) 8.1mph 9°C 6°C
6/12/19 21:50 EGBB 062150Z 26008KT 9999 BKN038 09/06 Q1007 W (260°) 9.2mph 9°C 6°C
6/12/19 21:20 EGBB 062120Z 27009KT 9999 BKN042 08/06 Q1006 W (270°) 10.4mph 8°C 6°C
6/12/19 20:50 EGBB 062050Z 26007KT 9999 BKN045 09/06 Q1006 W (260°) 8.1mph 9°C 6°C